createdAt,value
2022-10-30T00:00:36.135Z,12.56
2022-10-30T00:03:04.129Z,12.56
2022-10-30T00:05:32.521Z,12.57
2022-10-30T00:08:00.734Z,12.55
2022-10-30T00:10:28.681Z,12.50
2022-10-30T00:12:56.322Z,12.43
2022-10-30T00:15:24.320Z,12.39
2022-10-30T00:17:54.068Z,12.33
2022-10-30T00:20:22.046Z,12.24
2022-10-30T00:22:49.659Z,12.16
2022-10-30T00:25:17.833Z,12.04
2022-10-30T00:27:45.474Z,11.98
2022-10-30T00:30:15.563Z,11.94
2022-10-30T00:32:43.858Z,11.92
2022-10-30T00:35:13.524Z,11.91
2022-10-30T00:37:41.353Z,11.94
2022-10-30T00:40:15.143Z,12.07
2022-10-30T00:42:43.345Z,12.10
2022-10-30T00:45:12.737Z,12.13
2022-10-30T00:47:44.174Z,12.16
2022-10-30T00:50:18.355Z,12.19
2022-10-30T00:52:52.103Z,12.21
2022-10-30T00:55:24.025Z,12.20
2022-10-30T00:57:53.131Z,12.11
2022-10-30T01:00:23.905Z,12.11
2022-10-30T01:02:52.224Z,12.06
2022-10-30T01:05:25.330Z,11.99
2022-10-30T01:07:53.224Z,11.95
2022-10-30T01:10:22.273Z,11.89
2022-10-30T01:12:52.282Z,11.86
2022-10-30T01:15:25.754Z,11.82
2022-10-30T01:18:17.753Z,11.77
2022-10-30T01:21:18.150Z,11.74
2022-10-30T01:23:56.710Z,11.71
2022-10-30T01:26:37.905Z,11.69
2022-10-30T01:29:20.724Z,11.66
2022-10-30T01:31:58.747Z,11.62
2022-10-30T01:34:39.047Z,11.54
2022-10-30T01:37:14.789Z,11.54
2022-10-30T01:39:44.688Z,11.32
2022-10-30T01:42:49.216Z,11.22
2022-10-30T01:45:27.599Z,11.16
2022-10-30T01:48:32.090Z,11.14
2022-10-30T01:51:10.746Z,11.13
2022-10-30T01:53:51.390Z,11.03
2022-10-30T01:56:28.096Z,11.00
2022-10-30T01:59:10.229Z,11.06
2022-10-30T02:01:40.165Z,10.94
2022-10-30T02:04:09.367Z,10.90
2022-10-30T02:06:38.462Z,10.65
2022-10-30T02:09:06.676Z,10.60
2022-10-30T02:11:36.568Z,10.49
2022-10-30T02:14:08.057Z,10.41
2022-10-30T02:16:40.441Z,10.39
2022-10-30T02:19:08.074Z,10.42
2022-10-30T02:21:37.530Z,10.47
2022-10-30T02:24:05.732Z,10.50
2022-10-30T02:26:33.753Z,10.59
2022-10-30T02:29:03.255Z,10.64
2022-10-30T02:31:31.452Z,10.66
2022-10-30T02:33:59.168Z,10.58
2022-10-30T02:36:28.219Z,10.53
2022-10-30T02:38:57.751Z,10.67
2022-10-30T02:41:25.704Z,10.85
2022-10-30T02:43:54.461Z,11.03
2022-10-30T02:46:22.971Z,11.16
2022-10-30T02:48:50.669Z,11.27
2022-10-30T02:51:18.752Z,11.31
2022-10-30T02:53:47.728Z,11.38
2022-10-30T02:56:17.066Z,11.40
2022-10-30T02:58:45.420Z,11.41
2022-10-30T03:01:15.388Z,11.43
2022-10-30T03:03:44.674Z,11.44
2022-10-30T03:06:15.474Z,11.44
2022-10-30T03:08:43.670Z,11.37
2022-10-30T03:11:13.454Z,11.20
2022-10-30T03:13:43.448Z,11.08
2022-10-30T03:16:12.969Z,10.99
2022-10-30T03:18:42.210Z,10.70
2022-10-30T03:21:14.629Z,10.57
2022-10-30T03:23:42.728Z,10.44
2022-10-30T03:26:11.023Z,10.39
2022-10-30T03:28:50.948Z,10.36
2022-10-30T03:31:20.111Z,10.37
2022-10-30T03:33:54.533Z,10.23
2022-10-30T03:36:22.821Z,10.16
2022-10-30T03:38:50.876Z,10.11
2022-10-30T03:41:21.746Z,9.74
2022-10-30T03:43:50.766Z,9.59
2022-10-30T03:46:18.521Z,9.63
2022-10-30T03:48:49.838Z,9.75
2022-10-30T03:51:18.264Z,9.81
2022-10-30T03:53:47.676Z,9.85
2022-10-30T03:56:15.393Z,9.87
2022-10-30T03:58:51.617Z,9.87
2022-10-30T04:01:22.603Z,9.91
2022-10-30T04:03:56.335Z,9.71
2022-10-30T04:06:25.921Z,9.72
2022-10-30T04:08:55.753Z,9.60
2022-10-30T04:11:24.611Z,9.24
2022-10-30T04:13:53.891Z,9.51
2022-10-30T04:16:21.544Z,9.58
2022-10-30T04:18:49.885Z,9.62
2022-10-30T04:21:17.638Z,9.80
2022-10-30T04:23:45.666Z,9.84
2022-10-30T04:26:15.065Z,9.75
2022-10-30T04:28:44.764Z,9.78
2022-10-30T04:31:13.743Z,9.86
2022-10-30T04:33:41.466Z,10.14
2022-10-30T04:36:09.773Z,10.35
2022-10-30T04:38:37.802Z,10.50
2022-10-30T04:41:07.754Z,10.64
2022-10-30T04:43:49.427Z,10.78
2022-10-30T04:46:18.889Z,10.96
2022-10-30T04:48:47.431Z,11.14
2022-10-30T04:51:15.996Z,11.32
2022-10-30T04:53:45.440Z,11.45
2022-10-30T04:56:16.425Z,11.44
2022-10-30T04:58:44.447Z,11.31
2022-10-30T05:01:12.230Z,11.30
2022-10-30T05:03:41.792Z,11.20
2022-10-30T05:06:21.445Z,11.05
2022-10-30T05:08:49.718Z,10.92
2022-10-30T05:11:27.657Z,10.78
2022-10-30T05:13:56.722Z,10.63
2022-10-30T05:16:24.689Z,10.54
2022-10-30T05:18:54.915Z,10.50
2022-10-30T05:21:22.907Z,10.50
2022-10-30T05:23:51.204Z,10.53
2022-10-30T05:26:20.314Z,10.51
2022-10-30T05:28:48.988Z,10.47
2022-10-30T05:31:16.648Z,10.46
2022-10-30T05:34:07.253Z,10.45
2022-10-30T05:36:36.871Z,10.32
2022-10-30T05:39:05.029Z,10.23
2022-10-30T05:41:36.693Z,10.12
2022-10-30T05:44:05.049Z,10.11
2022-10-30T05:46:34.152Z,10.07
2022-10-30T05:49:19.921Z,10.07
2022-10-30T05:51:48.140Z,9.93
2022-10-30T05:54:17.041Z,9.82
2022-10-30T05:57:00.563Z,9.85
2022-10-30T05:59:30.058Z,9.83
2022-10-30T06:01:58.260Z,9.75
2022-10-30T06:04:27.725Z,9.63
2022-10-30T06:06:55.544Z,9.69
2022-10-30T06:09:23.205Z,9.66
2022-10-30T06:11:59.673Z,9.51
2022-10-30T06:14:42.476Z,9.32
2022-10-30T06:17:10.502Z,9.42
2022-10-30T06:19:55.208Z,9.49
2022-10-30T06:22:41.553Z,9.57
2022-10-30T06:25:16.453Z,9.74
2022-10-30T06:28:05.405Z,9.81
2022-10-30T06:30:33.709Z,9.90
2022-10-30T06:33:03.451Z,9.95
2022-10-30T06:35:33.588Z,9.97
2022-10-30T06:38:01.844Z,10.05
2022-10-30T06:40:31.810Z,10.09
2022-10-30T06:43:18.163Z,10.22
2022-10-30T06:48:37.541Z,10.47
2022-10-30T06:51:07.111Z,10.61
2022-10-30T06:53:38.502Z,10.73
2022-10-30T06:56:29.256Z,10.86
2022-10-30T06:59:11.417Z,11.01
2022-10-30T07:02:06.985Z,11.17
2022-10-30T07:04:46.009Z,11.25
2022-10-30T07:07:15.940Z,11.28
2022-10-30T07:09:44.217Z,11.19
2022-10-30T07:12:13.383Z,11.29
2022-10-30T07:15:00.296Z,11.41
2022-10-30T07:17:36.216Z,11.43
2022-10-30T07:20:11.453Z,11.59
2022-10-30T07:22:41.284Z,11.73
2022-10-30T07:25:09.841Z,11.91
2022-10-30T07:27:55.016Z,12.09
2022-10-30T07:30:43.067Z,12.13
2022-10-30T07:33:17.265Z,12.23
2022-10-30T07:36:01.919Z,12.44
2022-10-30T07:38:46.542Z,12.62
2022-10-30T07:41:34.648Z,12.87
2022-10-30T07:44:34.441Z,13.18
2022-10-30T07:47:34.475Z,13.43
2022-10-30T07:50:30.051Z,13.64
2022-10-30T07:52:57.776Z,13.92
2022-10-30T07:55:29.622Z,14.08
2022-10-30T07:58:15.725Z,14.30
2022-10-30T08:01:06.524Z,14.52
2022-10-30T08:03:35.403Z,14.73
2022-10-30T08:06:24.776Z,14.96
2022-10-30T08:08:55.429Z,15.12
2022-10-30T08:11:29.991Z,15.29
2022-10-30T08:14:00.388Z,15.54
2022-10-30T08:16:28.837Z,15.73
2022-10-30T08:18:58.291Z,16.50
2022-10-30T08:21:26.560Z,17.24
2022-10-30T08:24:14.476Z,17.71
2022-10-30T08:26:47.224Z,17.53
2022-10-30T08:29:15.128Z,17.65
2022-10-30T08:31:45.022Z,18.05
2022-10-30T08:34:26.598Z,18.79
2022-10-30T08:36:55.902Z,19.83
2022-10-30T08:39:25.195Z,20.64
2022-10-30T08:42:00.715Z,21.54
2022-10-30T08:44:34.711Z,21.76
2022-10-30T08:47:14.320Z,22.41
2022-10-30T08:49:42.501Z,23.10
2022-10-30T08:52:11.489Z,23.50
2022-10-30T08:54:40.537Z,24.12
2022-10-30T08:57:09.941Z,24.61
2022-10-30T08:59:40.465Z,25.09
2022-10-30T09:02:14.250Z,25.53
2022-10-30T09:05:01.035Z,25.73
2022-10-30T09:07:47.391Z,25.73
2022-10-30T09:10:33.846Z,25.87
2022-10-30T09:13:03.541Z,26.42
2022-10-30T09:15:32.168Z,26.76
2022-10-30T09:18:02.012Z,26.54
2022-10-30T09:20:30.794Z,26.23
2022-10-30T09:22:59.581Z,26.02
2022-10-30T09:25:27.960Z,26.33
2022-10-30T09:28:15.358Z,27.26
2022-10-30T09:31:18.493Z,27.92
2022-10-30T09:33:46.703Z,27.65
2022-10-30T09:36:35.100Z,28.05
2022-10-30T09:39:02.816Z,28.35
2022-10-30T09:41:55.789Z,28.13
2022-10-30T09:44:37.042Z,27.87
2022-10-30T09:47:23.049Z,28.33
2022-10-30T09:50:04.456Z,28.71
2022-10-30T09:52:48.191Z,29.50
2022-10-30T09:55:29.543Z,30.09
2022-10-30T09:58:05.449Z,30.66
2022-10-30T10:00:39.515Z,31.11
2022-10-30T10:03:28.211Z,31.46
2022-10-30T10:06:21.121Z,31.61
2022-10-30T10:09:08.058Z,31.91
2022-10-30T10:12:07.309Z,31.90
2022-10-30T10:14:38.481Z,32.13
2022-10-30T10:17:14.145Z,32.00
2022-10-30T10:19:49.517Z,32.16
2022-10-30T10:22:22.625Z,32.73
2022-10-30T10:24:50.841Z,33.18
2022-10-30T10:27:28.819Z,33.52
2022-10-30T10:30:05.255Z,33.80
2022-10-30T10:32:48.741Z,34.11
2022-10-30T10:35:35.654Z,34.36
2022-10-30T10:38:14.305Z,34.55
2022-10-30T10:40:54.918Z,34.76
2022-10-30T10:43:32.391Z,34.87
2022-10-30T10:46:23.158Z,34.71
2022-10-30T10:49:04.153Z,34.48
2022-10-30T10:51:37.206Z,34.32
2022-10-30T10:54:12.515Z,34.08
2022-10-30T10:56:43.633Z,33.90
2022-10-30T10:59:17.832Z,33.44
2022-10-30T11:01:50.861Z,32.69
2022-10-30T11:04:27.999Z,31.97
2022-10-30T11:06:57.379Z,31.33
2022-10-30T11:09:27.748Z,30.71
2022-10-30T11:11:56.260Z,30.14
2022-10-30T11:14:26.084Z,29.60
2022-10-30T11:17:11.962Z,29.22
2022-10-30T11:19:41.325Z,29.16
2022-10-30T11:22:20.149Z,29.33
2022-10-30T11:24:47.821Z,29.37
2022-10-30T11:27:25.651Z,29.26
2022-10-30T11:29:55.701Z,29.22
2022-10-30T11:32:27.175Z,29.15
2022-10-30T11:35:13.861Z,29.00
2022-10-30T11:37:43.312Z,29.11
2022-10-30T11:40:19.328Z,29.32
2022-10-30T11:42:49.441Z,29.36
2022-10-30T11:45:19.885Z,29.28
2022-10-30T11:47:48.325Z,29.13
2022-10-30T11:50:21.588Z,28.78
2022-10-30T11:52:51.550Z,28.52
2022-10-30T11:55:23.642Z,28.30
2022-10-30T11:57:53.204Z,28.01
2022-10-30T12:00:24.249Z,27.94
2022-10-30T12:02:54.618Z,28.01
2022-10-30T12:05:37.380Z,28.24
2022-10-30T12:08:19.565Z,28.74
2022-10-30T12:10:55.511Z,29.07
2022-10-30T12:13:24.881Z,29.27
2022-10-30T12:16:07.093Z,29.15
2022-10-30T12:18:35.562Z,29.01
2022-10-30T12:21:05.571Z,28.91
2022-10-30T12:23:34.382Z,28.86
2022-10-30T12:26:09.273Z,28.63
2022-10-30T12:28:37.533Z,28.33
2022-10-30T12:31:10.614Z,27.98
2022-10-30T12:33:43.459Z,27.76
2022-10-30T12:36:17.429Z,27.62
2022-10-30T12:38:48.444Z,27.57
2022-10-30T12:41:21.547Z,27.49
2022-10-30T12:43:57.437Z,27.55
2022-10-30T12:46:33.208Z,27.57
2022-10-30T12:49:11.773Z,27.41
2022-10-30T12:51:47.547Z,27.25
2022-10-30T12:54:24.335Z,27.04
2022-10-30T12:57:06.819Z,26.81
2022-10-30T12:59:42.174Z,26.61
2022-10-30T13:02:22.098Z,26.43
2022-10-30T13:04:57.782Z,26.19
2022-10-30T13:07:32.508Z,26.06
2022-10-30T13:10:14.208Z,25.82
2022-10-30T13:12:46.014Z,25.63
2022-10-30T13:15:22.834Z,25.56
2022-10-30T13:17:51.871Z,25.52
2022-10-30T13:20:20.215Z,25.53
2022-10-30T13:22:54.903Z,25.47
2022-10-30T13:25:29.241Z,25.43
2022-10-30T13:28:05.020Z,25.41
2022-10-30T13:30:38.233Z,25.40
2022-10-30T13:33:16.100Z,25.44
2022-10-30T13:35:52.210Z,25.41
2022-10-30T13:38:36.341Z,25.32
2022-10-30T13:41:15.418Z,25.24
2022-10-30T13:43:50.832Z,25.13
2022-10-30T13:46:28.131Z,25.08
2022-10-30T13:49:13.881Z,25.03
2022-10-30T13:51:45.305Z,25.05
2022-10-30T13:54:22.057Z,25.04
2022-10-30T13:56:51.716Z,24.95
2022-10-30T13:59:36.620Z,24.91
2022-10-30T14:02:15.706Z,24.78
2022-10-30T14:04:53.525Z,24.70
2022-10-30T14:07:31.887Z,24.75
2022-10-30T14:10:09.611Z,24.74
2022-10-30T14:13:06.484Z,24.68
2022-10-30T14:15:41.850Z,24.58
2022-10-30T14:18:26.097Z,24.51
2022-10-30T14:20:54.927Z,24.46
2022-10-30T14:23:25.033Z,24.40
2022-10-30T14:26:15.891Z,24.32
2022-10-30T14:28:45.471Z,24.30
2022-10-30T14:31:16.898Z,24.38
2022-10-30T14:33:50.225Z,24.43
2022-10-30T14:36:21.560Z,24.48
2022-10-30T14:39:00.236Z,24.71
2022-10-30T14:41:49.623Z,25.01
2022-10-30T14:44:25.643Z,25.00
2022-10-30T14:47:05.120Z,24.86
2022-10-30T14:49:45.324Z,24.67
2022-10-30T14:52:22.024Z,24.45
2022-10-30T14:54:57.610Z,24.27
2022-10-30T14:57:47.759Z,24.17
2022-10-30T15:00:41.029Z,24.05
2022-10-30T15:03:18.269Z,23.91
2022-10-30T15:05:52.677Z,23.77
2022-10-30T15:08:35.827Z,23.67
2022-10-30T15:11:32.856Z,23.54
2022-10-30T15:14:12.523Z,23.47
2022-10-30T15:16:52.046Z,23.39
2022-10-30T15:19:23.371Z,23.26
2022-10-30T15:21:54.607Z,23.14
2022-10-30T15:24:29.572Z,23.03
2022-10-30T15:27:01.458Z,22.86
2022-10-30T15:29:34.741Z,22.62
2022-10-30T15:32:04.385Z,22.46
2022-10-30T15:34:34.321Z,22.28
2022-10-30T15:37:12.066Z,22.07
2022-10-30T15:39:39.753Z,21.89
2022-10-30T15:42:07.748Z,21.73
2022-10-30T15:44:39.943Z,21.59
2022-10-30T15:47:16.112Z,21.45
2022-10-30T15:49:50.041Z,21.33
2022-10-30T15:52:23.218Z,21.15
2022-10-30T15:54:59.045Z,20.98
2022-10-30T15:58:01.131Z,20.82
2022-10-30T16:00:26.155Z,20.58
2022-10-30T16:03:04.885Z,20.40
2022-10-30T16:05:33.537Z,20.20
2022-10-30T16:08:03.310Z,20.05
2022-10-30T16:10:34.604Z,19.86
2022-10-30T16:13:03.949Z,19.71
2022-10-30T16:15:35.743Z,19.55
2022-10-30T16:18:20.509Z,19.41
2022-10-30T16:20:51.695Z,19.29
2022-10-30T16:23:21.823Z,19.20
2022-10-30T16:25:55.602Z,19.10
2022-10-30T16:28:29.307Z,18.96
2022-10-30T16:31:01.829Z,18.83
2022-10-30T16:33:31.627Z,18.72
2022-10-30T16:36:00.849Z,18.64
2022-10-30T16:38:32.660Z,18.57
2022-10-30T16:41:00.699Z,18.50
2022-10-30T16:43:30.793Z,18.46
2022-10-30T16:46:28.492Z,18.36
2022-10-30T16:49:00.127Z,18.26
2022-10-30T16:51:28.409Z,18.14
2022-10-30T16:53:56.831Z,17.99
2022-10-30T16:56:26.946Z,17.87
2022-10-30T16:58:58.871Z,17.78
2022-10-30T17:01:29.203Z,17.65
2022-10-30T17:03:58.914Z,17.56
2022-10-30T17:06:29.107Z,17.46
2022-10-30T17:09:00.156Z,17.33
2022-10-30T17:11:40.221Z,17.14
2022-10-30T17:14:19.025Z,17.02
2022-10-30T17:16:56.120Z,16.91
2022-10-30T17:19:40.423Z,16.84
2022-10-30T17:22:14.750Z,16.74
2022-10-30T17:24:42.926Z,16.66
2022-10-30T17:27:29.749Z,16.63
2022-10-30T17:29:57.539Z,16.58
2022-10-30T17:32:29.079Z,16.53
2022-10-30T17:35:01.902Z,16.55
2022-10-30T17:37:30.123Z,16.49
2022-10-30T17:39:57.792Z,16.34
2022-10-30T17:42:25.774Z,16.21
2022-10-30T17:44:53.586Z,16.13
2022-10-30T17:47:21.754Z,16.03
2022-10-30T17:49:50.879Z,15.91
2022-10-30T17:52:21.843Z,15.93
2022-10-30T17:54:49.635Z,15.95
2022-10-30T17:57:18.167Z,15.99
2022-10-30T17:59:45.837Z,16.04
2022-10-30T18:02:15.966Z,15.97
2022-10-30T18:04:44.420Z,16.00
2022-10-30T18:07:15.889Z,15.96
2022-10-30T18:09:44.420Z,15.77
2022-10-30T18:12:15.084Z,15.38
2022-10-30T18:14:45.384Z,15.38
2022-10-30T18:17:13.279Z,15.29
2022-10-30T18:19:41.252Z,15.20
2022-10-30T18:22:10.503Z,15.01
2022-10-30T18:24:40.132Z,14.98
2022-10-30T18:27:07.747Z,14.97
2022-10-30T18:29:36.005Z,14.91
2022-10-30T18:32:09.205Z,14.80
2022-10-30T18:34:38.386Z,14.71
2022-10-30T18:37:06.348Z,14.63
2022-10-30T18:39:34.522Z,14.39
2022-10-30T18:42:03.611Z,14.35
2022-10-30T18:44:31.763Z,14.35
2022-10-30T18:47:02.944Z,14.28
2022-10-30T18:49:33.647Z,14.35
2022-10-30T18:52:01.372Z,14.42
2022-10-30T18:54:29.781Z,14.44
2022-10-30T18:56:57.466Z,14.41
2022-10-30T18:59:27.153Z,14.41
2022-10-30T19:01:54.887Z,14.38
2022-10-30T19:04:22.978Z,14.38
2022-10-30T19:06:50.920Z,14.30
2022-10-30T19:09:19.056Z,14.24
2022-10-30T19:11:46.697Z,14.19
2022-10-30T19:14:15.968Z,14.14
2022-10-30T19:16:44.984Z,13.94
2022-10-30T19:19:15.190Z,13.85
2022-10-30T19:21:42.971Z,13.79
2022-10-30T19:24:15.078Z,13.82
2022-10-30T19:26:42.839Z,13.80
2022-10-30T19:29:10.829Z,13.74
2022-10-30T19:31:38.485Z,13.73
2022-10-30T19:34:07.521Z,13.80
2022-10-30T19:36:37.034Z,13.87
2022-10-30T19:39:10.403Z,13.86
2022-10-30T19:41:38.629Z,13.82
2022-10-30T19:44:07.626Z,13.76
2022-10-30T19:46:35.432Z,13.66
2022-10-30T19:49:17.355Z,13.64
2022-10-30T19:51:45.022Z,13.66
2022-10-30T19:54:12.685Z,13.59
2022-10-30T19:56:42.147Z,13.57
2022-10-30T19:59:10.479Z,13.49
2022-10-30T20:01:38.237Z,13.41
2022-10-30T20:04:06.316Z,13.34
2022-10-30T20:06:35.304Z,13.47
2022-10-30T20:09:03.450Z,13.53
2022-10-30T20:11:31.867Z,13.30
2022-10-30T20:13:59.940Z,13.09
2022-10-30T20:16:27.628Z,12.92
2022-10-30T20:18:55.603Z,12.69
2022-10-30T20:21:23.217Z,12.66
2022-10-30T20:23:52.673Z,12.65
2022-10-30T20:26:24.996Z,12.65
2022-10-30T20:28:53.801Z,12.73
2022-10-30T20:31:21.485Z,12.82
2022-10-30T20:33:49.222Z,12.91
2022-10-30T20:36:17.121Z,12.95
2022-10-30T20:38:44.900Z,12.88
2022-10-30T20:41:21.592Z,12.62
2022-10-30T20:43:50.162Z,12.49
2022-10-30T20:46:18.729Z,12.41
2022-10-30T20:48:46.410Z,12.22
2022-10-30T20:51:14.803Z,12.03
2022-10-30T20:53:42.552Z,11.99
2022-10-30T20:56:11.186Z,11.86
2022-10-30T20:58:40.646Z,11.95
2022-10-30T21:01:08.551Z,11.88
2022-10-30T21:03:36.256Z,11.77
2022-10-30T21:06:04.098Z,11.66
2022-10-30T21:08:32.802Z,11.55
2022-10-30T21:11:01.689Z,11.58
2022-10-30T21:13:30.251Z,11.59
2022-10-30T21:16:03.523Z,11.65
2022-10-30T21:18:32.391Z,11.67
2022-10-30T21:21:01.361Z,11.71
2022-10-30T21:23:29.210Z,11.76
2022-10-30T21:26:00.180Z,11.85
2022-10-30T21:28:28.136Z,11.77
2022-10-30T21:30:55.768Z,11.72
2022-10-30T21:33:25.431Z,11.73
2022-10-30T21:35:53.396Z,11.72
2022-10-30T21:38:21.007Z,11.69
2022-10-30T21:40:55.769Z,11.69
2022-10-30T21:43:23.425Z,11.69
2022-10-30T21:45:51.484Z,11.69
2022-10-30T21:48:19.340Z,11.57
2022-10-30T21:50:48.652Z,11.60
2022-10-30T21:53:16.273Z,11.54
2022-10-30T21:55:43.959Z,11.57
2022-10-30T21:58:11.583Z,11.55
2022-10-30T22:00:39.527Z,11.53
2022-10-30T22:03:07.215Z,11.59
2022-10-30T22:05:35.054Z,11.63
2022-10-30T22:08:04.052Z,11.59
2022-10-30T22:10:31.719Z,11.63
2022-10-30T22:12:59.410Z,11.64
2022-10-30T22:15:27.408Z,11.57
2022-10-30T22:17:55.012Z,11.45
2022-10-30T22:20:23.306Z,11.45
2022-10-30T22:22:50.990Z,11.40
2022-10-30T22:25:19.981Z,11.39
2022-10-30T22:27:48.263Z,11.35
2022-10-30T22:30:16.120Z,11.31
2022-10-30T22:32:43.755Z,11.25
2022-10-30T22:35:11.837Z,11.22
2022-10-30T22:37:39.441Z,11.21
2022-10-30T22:40:08.138Z,11.17
2022-10-30T22:42:37.342Z,11.15
2022-10-30T22:45:05.668Z,11.15
2022-10-30T22:47:33.292Z,11.19
2022-10-30T22:50:00.978Z,11.19
2022-10-30T22:52:28.601Z,11.26
2022-10-30T22:54:56.821Z,11.35
2022-10-30T22:57:24.534Z,11.45
2022-10-30T22:59:53.509Z,11.54
2022-10-30T23:02:21.559Z,11.55
2022-10-30T23:04:49.233Z,11.49
2022-10-30T23:07:18.105Z,11.40
2022-10-30T23:09:45.756Z,11.07
2022-10-30T23:12:13.390Z,10.72
2022-10-30T23:14:41.061Z,10.47
2022-10-30T23:17:10.388Z,10.38
2022-10-30T23:19:38.067Z,10.25
2022-10-30T23:22:06.035Z,10.37
2022-10-30T23:24:33.825Z,10.37
2022-10-30T23:27:01.779Z,10.33
2022-10-30T23:29:29.392Z,10.38
2022-10-30T23:31:57.036Z,10.31
2022-10-30T23:34:25.983Z,10.37
2022-10-30T23:36:57.707Z,10.39
2022-10-30T23:39:29.304Z,10.33
2022-10-30T23:41:57.285Z,10.31
2022-10-30T23:44:24.975Z,10.37
2022-10-30T23:46:52.619Z,10.33
2022-10-30T23:49:20.331Z,10.31
2022-10-30T23:51:49.652Z,10.27
2022-10-30T23:54:17.295Z,10.25
2022-10-30T23:56:45.313Z,10.20
2022-10-30T23:59:12.948Z,10.12
